createdAt,value
2022-10-08T00:01:49.657Z,5.40
2022-10-08T00:04:17.888Z,5.40
2022-10-08T00:06:46.007Z,5.40
2022-10-08T00:09:15.581Z,5.40
2022-10-08T00:11:43.892Z,5.30
2022-10-08T00:14:11.849Z,5.30
2022-10-08T00:16:42.014Z,5.40
2022-10-08T00:19:13.538Z,5.40
2022-10-08T00:21:43.981Z,5.30
2022-10-08T00:24:16.908Z,5.40
2022-10-08T00:26:45.725Z,5.40
2022-10-08T00:29:15.057Z,5.40
2022-10-08T00:31:45.505Z,5.40
2022-10-08T00:34:16.042Z,5.30
2022-10-08T00:36:43.946Z,5.40
2022-10-08T00:39:13.906Z,5.30
2022-10-08T00:41:45.476Z,5.30
2022-10-08T00:44:50.802Z,5.30
2022-10-08T00:47:25.742Z,5.40
2022-10-08T00:49:56.727Z,5.40
2022-10-08T00:52:28.629Z,5.40
2022-10-08T00:54:57.958Z,5.40
2022-10-08T00:57:27.879Z,5.30
2022-10-08T00:59:56.582Z,5.30
2022-10-08T01:02:24.669Z,5.30
2022-10-08T01:04:52.821Z,5.30
2022-10-08T01:07:25.821Z,5.30
2022-10-08T01:10:01.341Z,5.30
2022-10-08T01:12:41.687Z,5.30
2022-10-08T01:15:16.380Z,5.30
2022-10-08T01:17:52.898Z,5.40
2022-10-08T01:20:37.276Z,5.30
2022-10-08T01:23:41.545Z,5.40
2022-10-08T01:26:48.500Z,5.40
2022-10-08T01:29:22.275Z,5.50
2022-10-08T01:31:54.091Z,5.50
2022-10-08T01:34:27.284Z,5.60
2022-10-08T01:36:57.625Z,5.50
2022-10-08T01:39:31.450Z,5.60
2022-10-08T01:42:03.336Z,5.50
2022-10-08T01:44:36.254Z,5.60
2022-10-08T01:47:08.321Z,5.60
2022-10-08T01:49:41.938Z,5.60
2022-10-08T01:52:15.130Z,5.70
2022-10-08T01:54:46.442Z,5.70
2022-10-08T01:57:15.023Z,5.70
2022-10-08T01:59:47.965Z,5.70
2022-10-08T02:02:20.234Z,5.70
2022-10-08T02:04:49.961Z,5.70
2022-10-08T02:07:20.446Z,5.70
2022-10-08T02:09:52.525Z,5.70
2022-10-08T02:12:23.111Z,5.70
2022-10-08T02:14:55.329Z,5.70
2022-10-08T02:17:28.863Z,5.80
2022-10-08T02:20:00.972Z,5.80
2022-10-08T02:22:34.362Z,5.90
2022-10-08T02:25:07.844Z,5.90
2022-10-08T02:27:49.332Z,5.90
2022-10-08T02:30:19.247Z,5.90
2022-10-08T02:32:51.493Z,5.90
2022-10-08T02:35:25.454Z,5.90
2022-10-08T02:37:59.483Z,5.90
2022-10-08T02:40:29.178Z,5.90
2022-10-08T02:43:02.628Z,5.80
2022-10-08T02:45:35.681Z,5.80
2022-10-08T02:48:09.040Z,5.80
2022-10-08T02:50:40.522Z,5.80
2022-10-08T02:53:09.075Z,5.70
2022-10-08T02:55:45.605Z,5.70
2022-10-08T02:58:14.717Z,5.70
2022-10-08T03:00:50.498Z,5.70
2022-10-08T03:03:24.789Z,5.70
2022-10-08T03:05:53.639Z,5.70
2022-10-08T03:08:22.629Z,5.70
2022-10-08T03:10:51.475Z,5.80
2022-10-08T03:13:20.940Z,5.80
2022-10-08T03:15:53.560Z,5.80
2022-10-08T03:18:24.502Z,5.80
2022-10-08T03:20:55.929Z,5.80
2022-10-08T03:23:25.484Z,5.80
2022-10-08T03:25:53.390Z,5.90
2022-10-08T03:28:21.468Z,5.90
2022-10-08T03:30:50.884Z,5.90
2022-10-08T03:33:19.013Z,5.90
2022-10-08T03:35:47.084Z,6.00
2022-10-08T03:38:16.591Z,6.00
2022-10-08T03:40:44.984Z,6.00
2022-10-08T03:43:13.124Z,6.10
2022-10-08T03:45:49.493Z,6.10
2022-10-08T03:48:19.532Z,6.10
2022-10-08T03:50:52.927Z,6.20
2022-10-08T03:53:21.142Z,6.20
2022-10-08T03:55:49.352Z,6.20
2022-10-08T03:58:17.355Z,6.20
2022-10-08T04:00:45.717Z,6.20
2022-10-08T04:03:13.696Z,6.20
2022-10-08T04:05:50.210Z,6.20
2022-10-08T04:08:18.108Z,6.10
2022-10-08T04:10:46.107Z,6.10
2022-10-08T04:13:14.106Z,6.10
2022-10-08T04:15:42.167Z,6.10
2022-10-08T04:18:12.779Z,6.10
2022-10-08T04:20:42.352Z,6.10
2022-10-08T04:23:11.075Z,6.10
2022-10-08T04:25:39.033Z,6.10
2022-10-08T04:28:07.502Z,6.10
2022-10-08T04:30:35.736Z,6.00
2022-10-08T04:33:03.799Z,6.00
2022-10-08T04:35:31.761Z,6.00
2022-10-08T04:38:01.104Z,6.00
2022-10-08T04:40:28.984Z,6.00
2022-10-08T04:42:56.882Z,6.00
2022-10-08T04:45:24.766Z,5.90
2022-10-08T04:47:52.638Z,5.90
2022-10-08T04:50:20.713Z,5.80
2022-10-08T04:52:48.954Z,5.80
2022-10-08T04:55:18.484Z,5.80
2022-10-08T04:57:46.462Z,5.70
2022-10-08T05:00:18.248Z,5.70
2022-10-08T05:02:47.348Z,5.60
2022-10-08T05:05:16.412Z,5.60
2022-10-08T05:07:44.585Z,5.50
2022-10-08T05:10:12.759Z,5.50
2022-10-08T05:12:42.165Z,5.50
2022-10-08T05:15:11.456Z,5.50
2022-10-08T05:17:39.396Z,5.40
2022-10-08T05:20:08.317Z,5.40
2022-10-08T05:22:36.308Z,5.40
2022-10-08T05:25:04.492Z,5.40
2022-10-08T05:27:32.524Z,5.40
2022-10-08T05:30:02.505Z,5.50
2022-10-08T05:32:30.530Z,5.50
2022-10-08T05:34:58.588Z,5.50
2022-10-08T05:37:26.895Z,5.50
2022-10-08T05:39:54.856Z,5.50
2022-10-08T05:42:22.766Z,5.50
2022-10-08T05:44:50.725Z,5.60
2022-10-08T05:47:20.013Z,5.60
2022-10-08T05:49:47.875Z,5.60
2022-10-08T05:52:15.739Z,5.60
2022-10-08T05:54:43.990Z,5.60
2022-10-08T05:57:11.893Z,5.70
2022-10-08T05:59:39.710Z,5.70
2022-10-08T06:02:08.222Z,5.60
2022-10-08T06:04:37.667Z,5.60
2022-10-08T06:07:05.771Z,5.60
2022-10-08T06:09:33.768Z,5.60
2022-10-08T06:12:01.894Z,5.60
2022-10-08T06:14:29.856Z,5.60
2022-10-08T06:16:57.931Z,5.60
2022-10-08T06:19:26.258Z,5.60
2022-10-08T06:21:55.663Z,5.60
2022-10-08T06:24:23.691Z,5.60
2022-10-08T06:26:51.704Z,5.60
2022-10-08T06:29:22.513Z,5.60
2022-10-08T06:31:50.552Z,5.60
2022-10-08T06:34:18.637Z,5.60
2022-10-08T06:36:46.622Z,5.60
2022-10-08T06:39:19.025Z,5.70
2022-10-08T06:41:47.035Z,5.70
2022-10-08T06:44:16.131Z,5.80
2022-10-08T06:46:44.407Z,5.80
2022-10-08T06:49:13.410Z,5.80
2022-10-08T06:51:41.369Z,5.80
2022-10-08T06:54:09.468Z,5.90
2022-10-08T06:56:39.871Z,6.00
2022-10-08T06:59:08.281Z,6.10
2022-10-08T07:01:37.255Z,6.20
2022-10-08T07:04:06.899Z,6.30
2022-10-08T07:06:35.326Z,6.30
2022-10-08T07:09:04.855Z,6.40
2022-10-08T07:11:33.715Z,6.40
2022-10-08T07:14:03.219Z,6.40
2022-10-08T07:16:31.762Z,6.60
2022-10-08T07:18:59.985Z,6.70
2022-10-08T07:21:29.520Z,6.80
2022-10-08T07:23:59.360Z,6.90
2022-10-08T07:26:29.780Z,7.10
2022-10-08T07:28:59.294Z,7.30
2022-10-08T07:31:31.394Z,7.50
2022-10-08T07:33:59.891Z,7.70
2022-10-08T07:36:29.166Z,7.90
2022-10-08T07:38:57.890Z,8.10
2022-10-08T07:41:26.609Z,8.40
2022-10-08T07:43:56.386Z,8.70
2022-10-08T07:46:24.423Z,9.00
2022-10-08T07:48:54.803Z,9.30
2022-10-08T07:51:22.781Z,9.60
2022-10-08T07:53:50.799Z,9.90
2022-10-08T07:56:20.225Z,10.20
2022-10-08T07:58:49.179Z,10.50
2022-10-08T08:01:18.895Z,10.90
2022-10-08T08:03:46.846Z,11.20
2022-10-08T08:06:17.663Z,11.50
2022-10-08T08:08:46.940Z,12.00
2022-10-08T08:11:17.161Z,12.30
2022-10-08T08:13:45.718Z,12.70
2022-10-08T08:16:15.767Z,13.20
2022-10-08T08:18:46.154Z,13.70
2022-10-08T08:21:16.941Z,14.20
2022-10-08T08:23:47.364Z,14.50
2022-10-08T08:26:17.138Z,14.70
2022-10-08T08:28:46.688Z,15.10
2022-10-08T08:31:16.532Z,15.30
2022-10-08T08:33:48.291Z,15.40
2022-10-08T08:36:20.982Z,15.80
2022-10-08T08:38:48.989Z,15.90
2022-10-08T08:41:30.070Z,16.20
2022-10-08T08:44:01.916Z,16.60
2022-10-08T08:46:45.272Z,16.80
2022-10-08T08:49:21.217Z,17.00
2022-10-08T08:51:52.315Z,17.40
2022-10-08T08:54:39.655Z,17.50
2022-10-08T08:57:35.015Z,17.90
2022-10-08T09:00:06.386Z,18.00
2022-10-08T09:02:39.376Z,18.00
2022-10-08T09:05:13.248Z,18.00
2022-10-08T09:07:49.130Z,18.10
2022-10-08T09:10:22.726Z,18.00
2022-10-08T09:13:01.616Z,18.10
2022-10-08T09:15:41.426Z,18.00
2022-10-08T09:18:58.759Z,17.80
2022-10-08T09:21:35.300Z,17.30
2022-10-08T09:24:08.586Z,16.90
2022-10-08T09:26:37.219Z,16.80
2022-10-08T09:29:07.071Z,16.60
2022-10-08T09:31:43.232Z,16.30
2022-10-08T09:34:28.559Z,16.20
2022-10-08T09:37:13.502Z,16.40
2022-10-08T09:40:28.484Z,16.90
2022-10-08T09:43:17.472Z,17.00
2022-10-08T09:45:47.325Z,17.10
2022-10-08T09:51:52.810Z,17.00
2022-10-08T09:54:45.339Z,17.00
2022-10-08T09:57:16.945Z,16.90
2022-10-08T09:59:54.274Z,16.90
2022-10-08T10:02:32.601Z,16.80
2022-10-08T10:05:02.113Z,16.80
2022-10-08T10:07:40.045Z,16.70
2022-10-08T10:10:19.909Z,16.50
2022-10-08T10:12:55.421Z,16.60
2022-10-08T10:15:38.527Z,16.50
2022-10-08T10:18:16.011Z,16.30
2022-10-08T10:20:48.231Z,16.00
2022-10-08T10:23:31.457Z,15.80
2022-10-08T10:26:22.207Z,15.80
2022-10-08T10:31:45.468Z,15.60
2022-10-08T10:34:49.410Z,15.30
2022-10-08T10:37:50.439Z,15.40
2022-10-08T10:40:58.409Z,15.20
2022-10-08T10:44:06.668Z,15.10
2022-10-08T10:50:54.461Z,15.00
2022-10-08T10:53:53.691Z,14.90
2022-10-08T10:57:12.842Z,14.90
2022-10-08T11:00:28.291Z,14.80
2022-10-08T11:09:00.937Z,14.80
2022-10-08T11:10:28.454Z,14.80
2022-10-08T11:13:08.854Z,14.70
2022-10-08T11:15:57.558Z,14.70
2022-10-08T11:18:35.397Z,14.60
2022-10-08T11:21:26.079Z,14.50
2022-10-08T11:24:22.593Z,14.60
2022-10-08T11:26:58.622Z,14.50
2022-10-08T11:29:38.804Z,14.20
2022-10-08T11:32:12.319Z,14.30
2022-10-08T11:34:43.953Z,14.20
2022-10-08T11:37:18.914Z,14.20
2022-10-08T11:40:00.768Z,14.40
2022-10-08T11:42:41.279Z,14.50
2022-10-08T11:45:34.874Z,14.50
2022-10-08T11:48:06.487Z,14.60
2022-10-08T11:50:44.851Z,14.60
2022-10-08T11:53:25.725Z,14.50
2022-10-08T11:56:22.537Z,14.50
2022-10-08T11:58:55.333Z,14.60
2022-10-08T12:01:25.356Z,14.60
2022-10-08T12:04:06.273Z,14.70
2022-10-08T12:06:36.859Z,14.80
2022-10-08T12:09:06.903Z,14.80
2022-10-08T12:11:51.358Z,14.80
2022-10-08T12:14:47.547Z,14.90
2022-10-08T12:17:17.832Z,15.00
2022-10-08T12:20:28.473Z,15.00
2022-10-08T12:23:05.046Z,15.20
2022-10-08T12:25:46.601Z,15.40
2022-10-08T12:28:57.384Z,15.40
2022-10-08T12:31:47.634Z,15.50
2022-10-08T12:34:22.824Z,15.40
2022-10-08T12:37:06.314Z,15.40
2022-10-08T12:39:46.801Z,15.40
2022-10-08T12:42:34.603Z,15.40
2022-10-08T12:45:44.775Z,15.40
2022-10-08T12:49:05.963Z,15.40
2022-10-08T12:51:48.727Z,15.40
2022-10-08T12:54:23.040Z,15.30
2022-10-08T12:56:59.071Z,15.30
2022-10-08T12:59:33.029Z,15.10
2022-10-08T13:02:31.399Z,15.10
2022-10-08T13:04:59.700Z,15.20
2022-10-08T13:07:39.415Z,15.20
2022-10-08T13:10:21.448Z,15.20
2022-10-08T13:13:05.752Z,15.20
2022-10-08T13:15:34.848Z,15.10
2022-10-08T13:18:14.522Z,15.10
2022-10-08T13:20:58.992Z,15.10
2022-10-08T13:23:35.665Z,15.00
2022-10-08T13:26:03.789Z,15.10
2022-10-08T13:28:59.474Z,15.00
2022-10-08T13:31:25.074Z,15.00
2022-10-08T13:33:55.247Z,15.10
2022-10-08T13:36:27.762Z,15.10
2022-10-08T13:39:19.647Z,15.20
2022-10-08T13:41:55.985Z,15.10
2022-10-08T13:44:41.289Z,15.00
2022-10-08T13:47:14.301Z,15.10
2022-10-08T13:49:46.690Z,15.10
2022-10-08T13:52:16.946Z,15.10
2022-10-08T13:54:47.050Z,15.00
2022-10-08T13:57:18.296Z,14.80
2022-10-08T13:59:52.041Z,14.70
2022-10-08T14:03:13.052Z,14.70
2022-10-08T14:05:17.161Z,14.70
2022-10-08T14:07:46.493Z,14.90
2022-10-08T14:10:18.335Z,14.90
2022-10-08T14:12:52.266Z,15.00
2022-10-08T14:15:20.571Z,15.00
2022-10-08T14:17:50.747Z,15.00
2022-10-08T14:20:19.001Z,15.00
2022-10-08T14:22:47.121Z,15.00
2022-10-08T14:25:19.398Z,15.00
2022-10-08T14:27:47.722Z,15.10
2022-10-08T14:30:16.969Z,15.10
2022-10-08T14:32:45.074Z,15.10
2022-10-08T14:35:13.718Z,15.20
2022-10-08T14:37:41.634Z,15.30
2022-10-08T14:40:15.619Z,15.30
2022-10-08T14:42:45.161Z,15.30
2022-10-08T14:45:13.242Z,15.40
2022-10-08T14:47:41.999Z,15.40
2022-10-08T14:50:10.329Z,15.30
2022-10-08T14:52:43.910Z,15.30
2022-10-08T14:55:13.307Z,15.20
2022-10-08T14:57:41.865Z,15.30
2022-10-08T15:00:13.133Z,15.20
2022-10-08T15:02:44.046Z,15.00
2022-10-08T15:05:12.049Z,14.80
2022-10-08T15:07:40.066Z,14.80
2022-10-08T15:10:09.245Z,14.60
2022-10-08T15:12:37.296Z,14.50
2022-10-08T15:15:06.906Z,14.50
2022-10-08T15:17:36.185Z,14.40
2022-10-08T15:20:04.383Z,14.30
2022-10-08T15:22:32.318Z,14.30
2022-10-08T15:25:00.281Z,14.20
2022-10-08T15:27:28.126Z,14.10
2022-10-08T15:29:56.323Z,14.10
2022-10-08T15:32:28.369Z,14.00
2022-10-08T15:34:59.798Z,13.40
2022-10-08T15:37:27.607Z,12.80
2022-10-08T15:39:55.542Z,12.60
2022-10-08T15:42:23.478Z,12.40
2022-10-08T15:44:51.365Z,12.10
2022-10-08T15:47:19.324Z,11.90
2022-10-08T15:49:47.234Z,11.80
2022-10-08T15:52:18.345Z,11.80
2022-10-08T15:54:46.848Z,11.70
2022-10-08T15:57:16.129Z,11.60
2022-10-08T15:59:44.706Z,11.50
2022-10-08T16:02:16.943Z,11.50
2022-10-08T16:04:47.782Z,11.50
2022-10-08T16:07:17.211Z,11.50
2022-10-08T16:09:45.059Z,11.50
2022-10-08T16:12:13.051Z,11.40
2022-10-08T16:14:41.118Z,11.30
2022-10-08T16:17:09.593Z,11.30
2022-10-08T16:19:37.536Z,11.20
2022-10-08T16:22:05.877Z,11.20
2022-10-08T16:24:35.234Z,11.10
2022-10-08T16:27:03.313Z,11.10
2022-10-08T16:29:31.239Z,11.10
2022-10-08T16:31:59.567Z,11.10
2022-10-08T16:34:28.720Z,11.00
2022-10-08T16:36:59.363Z,11.00
2022-10-08T16:39:27.839Z,10.90
2022-10-08T16:41:57.181Z,10.80
2022-10-08T16:44:25.044Z,10.80
2022-10-08T16:46:54.206Z,10.80
2022-10-08T16:49:25.843Z,10.70
2022-10-08T16:51:55.159Z,10.70
2022-10-08T16:54:23.194Z,10.60
2022-10-08T16:56:51.620Z,10.70
2022-10-08T16:59:23.309Z,10.60
2022-10-08T17:01:53.717Z,10.60
2022-10-08T17:04:23.568Z,10.60
2022-10-08T17:06:51.566Z,10.50
2022-10-08T17:09:20.540Z,10.60
2022-10-08T17:11:48.602Z,10.70
2022-10-08T17:14:17.051Z,10.60
2022-10-08T17:16:46.745Z,10.50
2022-10-08T17:19:15.147Z,10.50
2022-10-08T17:21:43.334Z,10.30
2022-10-08T17:24:12.830Z,10.30
2022-10-08T17:26:41.876Z,10.20
2022-10-08T17:29:11.556Z,10.10
2022-10-08T17:31:39.838Z,10.00
2022-10-08T17:34:09.998Z,10.00
2022-10-08T17:36:39.904Z,10.00
2022-10-08T17:39:11.235Z,10.00
2022-10-08T17:41:41.000Z,10.00
2022-10-08T17:44:10.521Z,9.90
2022-10-08T17:46:40.293Z,9.90
2022-10-08T17:49:09.567Z,9.80
2022-10-08T17:51:37.355Z,9.70
2022-10-08T17:54:07.368Z,9.80
2022-10-08T17:56:36.132Z,9.80
2022-10-08T17:59:04.918Z,9.70
2022-10-08T18:01:34.579Z,9.70
2022-10-08T18:04:05.201Z,9.60
2022-10-08T18:06:36.753Z,9.60
2022-10-08T18:09:07.790Z,9.50
2022-10-08T18:11:37.280Z,9.40
2022-10-08T18:14:07.144Z,9.50
2022-10-08T18:16:35.560Z,9.50
2022-10-08T18:19:07.785Z,9.40
2022-10-08T18:21:38.119Z,9.30
2022-10-08T18:24:06.694Z,9.20
2022-10-08T18:26:37.197Z,9.20
2022-10-08T18:29:09.000Z,9.20
2022-10-08T18:31:37.792Z,9.20
2022-10-08T18:34:08.886Z,9.20
2022-10-08T18:36:39.517Z,9.20
2022-10-08T18:39:09.887Z,9.20
2022-10-08T18:41:41.187Z,9.10
2022-10-08T18:44:11.542Z,9.10
2022-10-08T18:46:40.731Z,9.00
2022-10-08T18:49:08.936Z,8.90
2022-10-08T18:51:38.200Z,8.90
2022-10-08T18:54:06.824Z,8.90
2022-10-08T18:56:39.701Z,8.80
2022-10-08T18:59:11.611Z,8.80
2022-10-08T19:01:42.640Z,8.80
2022-10-08T19:04:14.648Z,8.80
2022-10-08T19:06:45.863Z,8.90
2022-10-08T19:09:14.704Z,8.90
2022-10-08T19:11:45.375Z,8.90
2022-10-08T19:14:14.896Z,8.80
2022-10-08T19:16:43.995Z,8.90
2022-10-08T19:19:14.999Z,8.80
2022-10-08T19:21:44.794Z,8.80
2022-10-08T19:24:15.425Z,8.90
2022-10-08T19:26:44.573Z,9.00
2022-10-08T19:29:16.396Z,9.00
2022-10-08T19:31:47.400Z,9.10
2022-10-08T19:34:17.488Z,9.10
2022-10-08T19:36:47.090Z,9.10
2022-10-08T19:39:17.845Z,9.10
2022-10-08T19:41:45.805Z,9.10
2022-10-08T19:44:14.529Z,9.00
2022-10-08T19:46:42.533Z,9.10
2022-10-08T19:49:11.765Z,9.00
2022-10-08T19:51:41.500Z,9.00
2022-10-08T19:54:11.663Z,8.90
2022-10-08T19:56:39.919Z,8.90
2022-10-08T19:59:08.114Z,8.90
2022-10-08T20:01:39.243Z,8.90
2022-10-08T20:04:09.329Z,8.80
2022-10-08T20:06:39.872Z,8.70
2022-10-08T20:09:12.249Z,8.60
2022-10-08T20:11:41.502Z,8.50
2022-10-08T20:14:09.429Z,8.40
2022-10-08T20:16:39.608Z,8.30
2022-10-08T20:19:16.813Z,8.30
2022-10-08T20:21:44.937Z,8.20
2022-10-08T20:24:14.863Z,8.20
2022-10-08T20:26:44.182Z,8.10
2022-10-08T20:29:14.301Z,8.10
2022-10-08T20:31:44.172Z,8.00
2022-10-08T20:34:14.671Z,7.90
2022-10-08T20:36:42.855Z,7.80
2022-10-08T20:39:12.456Z,7.70
2022-10-08T20:41:41.771Z,7.60
2022-10-08T20:44:10.551Z,7.60
2022-10-08T20:46:39.482Z,7.60
2022-10-08T20:49:08.151Z,7.50
2022-10-08T20:51:36.274Z,7.40
2022-10-08T20:54:05.902Z,7.30
2022-10-08T20:56:39.596Z,7.30
2022-10-08T20:59:09.618Z,7.30
2022-10-08T21:01:39.368Z,7.30
2022-10-08T21:04:08.374Z,7.20
2022-10-08T21:06:38.222Z,7.10
2022-10-08T21:09:06.595Z,7.10
2022-10-08T21:11:35.645Z,7.00
2022-10-08T21:14:03.739Z,7.10
2022-10-08T21:16:34.899Z,6.90
2022-10-08T21:19:04.984Z,7.10
2022-10-08T21:21:34.135Z,7.00
2022-10-08T21:24:02.343Z,7.00
2022-10-08T21:26:34.834Z,6.90
2022-10-08T21:29:04.225Z,6.90
2022-10-08T21:31:36.019Z,6.90
2022-10-08T21:34:04.972Z,6.80
2022-10-08T21:36:35.390Z,6.80
2022-10-08T21:39:05.228Z,6.80
2022-10-08T21:41:34.692Z,6.80
2022-10-08T21:44:04.805Z,6.80
2022-10-08T21:46:36.390Z,6.70
2022-10-08T21:49:06.751Z,6.70
2022-10-08T21:51:35.837Z,6.70
2022-10-08T21:54:06.540Z,6.70
2022-10-08T21:56:37.299Z,6.70
2022-10-08T21:59:06.639Z,6.70
2022-10-08T22:01:38.131Z,6.70
2022-10-08T22:04:08.428Z,6.70
2022-10-08T22:06:38.448Z,6.60
2022-10-08T22:09:07.466Z,6.60
2022-10-08T22:11:35.800Z,6.50
2022-10-08T22:14:04.147Z,6.50
2022-10-08T22:16:32.222Z,6.40
2022-10-08T22:19:01.726Z,6.40
2022-10-08T22:21:29.750Z,6.30
2022-10-08T22:23:57.895Z,6.30
2022-10-08T22:26:29.724Z,6.30
2022-10-08T22:28:58.025Z,6.20
2022-10-08T22:31:26.656Z,6.10
2022-10-08T22:33:55.052Z,6.10
2022-10-08T22:36:26.681Z,6.10
2022-10-08T22:38:56.064Z,6.10
2022-10-08T22:41:25.462Z,6.10
2022-10-08T22:43:54.148Z,6.10
2022-10-08T22:46:24.197Z,6.10
2022-10-08T22:48:52.594Z,6.00
2022-10-08T22:51:22.096Z,6.00
2022-10-08T22:53:51.649Z,6.00
2022-10-08T22:56:21.534Z,5.90
2022-10-08T22:58:50.206Z,5.90
2022-10-08T23:01:20.118Z,5.90
2022-10-08T23:03:49.014Z,5.90
2022-10-08T23:06:19.179Z,5.90
2022-10-08T23:08:48.397Z,5.80
2022-10-08T23:11:17.937Z,5.80
2022-10-08T23:13:46.838Z,5.70
2022-10-08T23:16:16.978Z,5.70
2022-10-08T23:18:47.213Z,5.60
2022-10-08T23:21:17.402Z,5.60
2022-10-08T23:23:46.933Z,5.60
2022-10-08T23:26:16.004Z,5.60
2022-10-08T23:28:46.127Z,5.50
2022-10-08T23:31:15.700Z,5.50
2022-10-08T23:33:45.589Z,5.50
2022-10-08T23:36:16.827Z,5.40
2022-10-08T23:38:45.046Z,5.30
2022-10-08T23:41:14.156Z,5.40
2022-10-08T23:43:43.859Z,5.30
2022-10-08T23:46:14.841Z,5.30
2022-10-08T23:48:43.126Z,5.20
2022-10-08T23:51:12.468Z,5.20
2022-10-08T23:53:41.250Z,5.10
2022-10-08T23:56:09.882Z,5.10
2022-10-08T23:58:37.971Z,5.10
